Yellowstone Regional Airport Cody US
ICAO: KCOD
IATA: COD
Category: Medium
Scheduled Services: No

Elevation: 5102 ft
TransAlt. 18000 ft.

Airport Communications:
AWOS 3:135.075
SALT LAKE CITY CNTR:133.25
CASPER RDO:122.3
CTAF/UNICOM:122.8

KCOD Zoom In..

If you have problems with the map follow the link
https://www.worldairports.se/pages/airport.php?
ICAO=KCOD

Runways:

(A) RW 04 length 8268 ft width 100 ft
---- / hdg 38

(B) RW 22 length 8268 ft width 100 ft
---- / hdg 218

Location; KCOD
Day. 18 / Time. 23.56 Zulu
* Altimeter: 30.08
* Temperature: 18° c. 64.4°f.
* Wind from: 030° Speed 06 kn.
Dewpoint: -03° c.
Visibility: 10 Statute Miles.
Clouds: Clear (automated report).

KCOD 182356Z AUTO 03006KT 10SM CLR 18/M03 A3008 RMK AO2 SLP182 T01781028 10189 20167 53001


Wind From 030°
Speed 06 kn.

 
 
jpsmedia.com for Web Design worldairports.se 2018   terms of use